MET'MAP v2.0
soon released !

Expected late october,
this new version will be
more efficient, smarter,
and hosted on a brand new
server x3 powerfull...
...and still free !


Not compatible ?
Try the mobile version !

LOG IN : | Subscribe | Disclaimer | Who is Orbifly ? |
ICAO code :

TAF - LGAD Andravida - 27 Feb 2020 03:13 UTC - Data Source NOAA   


- Airport Elevation : 55 ft
- IATA code : PYR
- No reported NOTAMs.


LGAD - Andravida

Latest METAR recorded : 2015/08/11 07:50 LGAD 110750Z 34004KT 9999 FEW020 SCT180 29/18 Q1012
TAF TAF LGAD
Valid from the 27 at 00:00 until the 27 at 09:00 UTC


262300Z 2700/2709 20015KT 9999 FEW018 BKN025
BECMG 2704/2706 29015KT

Source NOAA


MET'MAP, your aeronautical weather chart ! - Copyright ORBIFLY December 2007

Programming & Development : Alexandra Zaïnal
Co-Developer : Marc-Olivier Méhu
Technical & hardware support : Manuel Goepfert
Concept & Financing : Baudouin d'Aumeries